E7BMS LWSK-LQMO
Flight info
| Callsign | E7BMS |
|---|---|
| Flight time | 1h 5m |
| Altitude | 22000 |
| Route | MAVAR RETRA GEBNI |
| Aircraft | TBM9/L-V/N |
Departure
| Time | 2026-05-05 21:05 |
|---|---|
| Airport | Skopje International Airport (LWSK) |
Arrival
| Time | 2026-05-05 22:11 |
|---|---|
| Airport | Mostar International Airport (LQMO) |
| Time | Latitude | Longitude | Altitude | Speed | Heading |
|---|---|---|---|---|---|
| 2026-05-05 21:03 | 41.96935 | 21.61874 | 784 ft | 0 kts | 165° |
| 2026-05-05 21:04 | 41.96779 | 21.61926 | 787 ft | 52 kts | 165° |
| 2026-05-05 21:05 | 41.96242 | 21.62118 | 794 ft | 105 kts | 165° |
| 2026-05-05 21:05 | 41.95480 | 21.62405 | 1075 ft | 123 kts | 161° |
| 2026-05-05 21:05 | 41.94622 | 21.62706 | 1463 ft | 132 kts | 166° |
| 2026-05-05 21:05 | 41.93706 | 21.63001 | 1888 ft | 138 kts | 165° |
| 2026-05-05 21:06 | 41.92769 | 21.63324 | 2332 ft | 141 kts | 165° |
| 2026-05-05 21:06 | 41.91806 | 21.63658 | 2771 ft | 144 kts | 167° |
| 2026-05-05 21:06 | 41.90826 | 21.64000 | 3207 ft | 148 kts | 167° |
| 2026-05-05 21:06 | 41.89800 | 21.64358 | 3578 ft | 156 kts | 167° |
| 2026-05-05 21:07 | 41.88733 | 21.64728 | 3959 ft | 161 kts | 167° |
| 2026-05-05 21:07 | 41.87636 | 21.65109 | 4335 ft | 165 kts | 167° |
| 2026-05-05 21:07 | 41.86504 | 21.65504 | 4723 ft | 170 kts | 167° |
| 2026-05-05 21:07 | 41.85348 | 21.65905 | 5099 ft | 174 kts | 167° |
| 2026-05-05 21:08 | 41.84180 | 21.66310 | 5461 ft | 177 kts | 167° |
| 2026-05-05 21:08 | 41.82985 | 21.66725 | 5838 ft | 178 kts | 167° |
| 2026-05-05 21:08 | 41.81775 | 21.67145 | 6218 ft | 180 kts | 166° |
| 2026-05-05 21:08 | 41.80667 | 21.67894 | 6586 ft | 182 kts | 134° |
| 2026-05-05 21:09 | 41.80195 | 21.69447 | 6953 ft | 184 kts | 91° |
| 2026-05-05 21:09 | 41.80602 | 21.71046 | 7322 ft | 185 kts | 50° |
| 2026-05-05 21:09 | 41.81691 | 21.71899 | 7688 ft | 185 kts | 8° |
| 2026-05-05 21:09 | 41.82927 | 21.71593 | 8081 ft | 184 kts | 332° |
| 2026-05-05 21:10 | 41.84029 | 21.70715 | 8467 ft | 184 kts | 328° |
| 2026-05-05 21:10 | 41.85124 | 21.69822 | 8850 ft | 185 kts | 328° |
| 2026-05-05 21:10 | 41.86229 | 21.68927 | 9239 ft | 186 kts | 329° |
| 2026-05-05 21:10 | 41.87338 | 21.68033 | 9631 ft | 186 kts | 329° |
| 2026-05-05 21:11 | 41.88438 | 21.67148 | 10010 ft | 187 kts | 329° |
| 2026-05-05 21:11 | 41.89554 | 21.66249 | 10365 ft | 187 kts | 328° |
| 2026-05-05 21:11 | 41.90673 | 21.65349 | 10728 ft | 188 kts | 328° |
| 2026-05-05 21:11 | 41.91766 | 21.64388 | 11094 ft | 187 kts | 317° |
| 2026-05-05 21:12 | 41.92533 | 21.62997 | 11463 ft | 186 kts | 295° |
| 2026-05-05 21:12 | 41.92858 | 21.61328 | 11843 ft | 186 kts | 273° |
| 2026-05-05 21:12 | 41.92693 | 21.59619 | 12222 ft | 185 kts | 253° |
| 2026-05-05 21:12 | 41.92301 | 21.57971 | 12605 ft | 185 kts | 253° |
| 2026-05-05 21:13 | 41.91922 | 21.56319 | 12995 ft | 185 kts | 253° |
| 2026-05-05 21:13 | 41.91537 | 21.54670 | 13387 ft | 185 kts | 253° |
| 2026-05-05 21:13 | 41.91149 | 21.53019 | 13783 ft | 185 kts | 253° |
| 2026-05-05 21:13 | 41.90762 | 21.51368 | 14129 ft | 186 kts | 253° |
| 2026-05-05 21:14 | 41.90365 | 21.49678 | 14345 ft | 193 kts | 253° |
| 2026-05-05 21:14 | 41.89960 | 21.47953 | 14561 ft | 199 kts | 253° |
| 2026-05-05 21:14 | 41.89539 | 21.46163 | 14780 ft | 203 kts | 253° |
| 2026-05-05 21:14 | 41.89110 | 21.44338 | 15011 ft | 206 kts | 253° |
| 2026-05-05 21:15 | 41.88674 | 21.42487 | 15240 ft | 209 kts | 253° |
| 2026-05-05 21:15 | 41.88234 | 21.40619 | 15454 ft | 211 kts | 253° |
| 2026-05-05 21:15 | 41.87789 | 21.38733 | 15685 ft | 213 kts | 253° |
| 2026-05-05 21:15 | 41.87341 | 21.36835 | 15911 ft | 214 kts | 253° |
| 2026-05-05 21:16 | 41.86890 | 21.34928 | 16141 ft | 215 kts | 253° |
| 2026-05-05 21:16 | 41.86437 | 21.33007 | 16368 ft | 216 kts | 253° |
| 2026-05-05 21:16 | 41.86136 | 21.31737 | 16525 ft | 216 kts | 253° |
| 2026-05-05 21:16 | 41.85680 | 21.29817 | 16759 ft | 216 kts | 254° |
| 2026-05-05 21:17 | 41.85226 | 21.27895 | 16992 ft | 217 kts | 254° |
| 2026-05-05 21:17 | 41.84769 | 21.25968 | 17226 ft | 217 kts | 254° |
| 2026-05-05 21:17 | 41.84162 | 21.23408 | 17545 ft | 218 kts | 254° |
| 2026-05-05 21:17 | 41.83850 | 21.22099 | 17709 ft | 218 kts | 254° |
| 2026-05-05 21:18 | 41.83390 | 21.20162 | 17949 ft | 218 kts | 254° |
| 2026-05-05 21:18 | 41.82928 | 21.18225 | 18194 ft | 218 kts | 254° |
| 2026-05-05 21:18 | 41.82468 | 21.16290 | 18421 ft | 218 kts | 254° |
| 2026-05-05 21:18 | 41.82013 | 21.14377 | 18626 ft | 217 kts | 254° |
| 2026-05-05 21:19 | 41.81551 | 21.12448 | 18839 ft | 217 kts | 254° |
| 2026-05-05 21:19 | 41.81094 | 21.10531 | 19051 ft | 216 kts | 254° |
| 2026-05-05 21:19 | 41.80629 | 21.08608 | 19265 ft | 217 kts | 254° |
| 2026-05-05 21:19 | 41.80162 | 21.06685 | 19475 ft | 217 kts | 254° |
| 2026-05-05 21:20 | 41.79694 | 21.04756 | 19691 ft | 218 kts | 255° |
| 2026-05-05 21:20 | 41.79224 | 21.02821 | 19913 ft | 218 kts | 255° |
| 2026-05-05 21:20 | 41.78756 | 21.00890 | 20136 ft | 218 kts | 255° |
| 2026-05-05 21:20 | 41.78285 | 20.98951 | 20356 ft | 219 kts | 255° |
| 2026-05-05 21:21 | 41.77812 | 20.97008 | 20580 ft | 220 kts | 255° |
| 2026-05-05 21:21 | 41.77337 | 20.95058 | 20802 ft | 220 kts | 255° |
| 2026-05-05 21:21 | 41.76861 | 20.93102 | 21033 ft | 221 kts | 255° |
| 2026-05-05 21:21 | 41.76383 | 20.91145 | 21260 ft | 221 kts | 255° |
| 2026-05-05 21:22 | 41.75905 | 20.89183 | 21488 ft | 222 kts | 255° |
| 2026-05-05 21:22 | 41.75425 | 20.87222 | 21719 ft | 222 kts | 255° |
| 2026-05-05 21:22 | 41.74945 | 20.85258 | 21954 ft | 222 kts | 255° |
| 2026-05-05 21:22 | 41.74460 | 20.83272 | 22050 ft | 228 kts | 255° |
| 2026-05-05 21:23 | 41.73957 | 20.81217 | 22056 ft | 236 kts | 255° |
| 2026-05-05 21:23 | 41.73441 | 20.79111 | 22071 ft | 241 kts | 254° |
| 2026-05-05 21:23 | 41.72911 | 20.76952 | 22066 ft | 245 kts | 254° |
| 2026-05-05 21:23 | 41.72377 | 20.74784 | 22082 ft | 247 kts | 254° |
| 2026-05-05 21:24 | 41.71839 | 20.72590 | 22093 ft | 250 kts | 254° |
| 2026-05-05 21:24 | 41.71294 | 20.70379 | 22092 ft | 251 kts | 254° |
| 2026-05-05 21:24 | 41.70746 | 20.68155 | 22097 ft | 252 kts | 254° |
| 2026-05-05 21:24 | 41.70196 | 20.65925 | 22099 ft | 253 kts | 254° |
| 2026-05-05 21:25 | 41.69644 | 20.63685 | 22094 ft | 254 kts | 254° |
| 2026-05-05 21:25 | 41.69090 | 20.61446 | 22102 ft | 253 kts | 254° |
| 2026-05-05 21:25 | 41.68537 | 20.59210 | 22100 ft | 253 kts | 254° |
| 2026-05-05 21:25 | 41.67997 | 20.56999 | 22104 ft | 253 kts | 256° |
| 2026-05-05 21:26 | 41.67722 | 20.54668 | 22104 ft | 250 kts | 270° |
| 2026-05-05 21:26 | 41.67865 | 20.52396 | 22105 ft | 248 kts | 282° |
| 2026-05-05 21:26 | 41.68404 | 20.50203 | 22108 ft | 249 kts | 295° |
| 2026-05-05 21:26 | 41.69290 | 20.48201 | 22108 ft | 250 kts | 302° |
| 2026-05-05 21:27 | 41.70225 | 20.46243 | 22110 ft | 250 kts | 301° |
| 2026-05-05 21:27 | 41.71151 | 20.44279 | 22110 ft | 250 kts | 301° |
| 2026-05-05 21:27 | 41.72083 | 20.42313 | 22113 ft | 250 kts | 301° |
| 2026-05-05 21:27 | 41.73016 | 20.40350 | 22108 ft | 250 kts | 301° |
| 2026-05-05 21:28 | 41.73951 | 20.38382 | 22111 ft | 251 kts | 301° |
| 2026-05-05 21:28 | 41.74886 | 20.36408 | 22114 ft | 251 kts | 301° |
| 2026-05-05 21:28 | 41.75823 | 20.34433 | 22114 ft | 251 kts | 301° |
| 2026-05-05 21:28 | 41.76760 | 20.32451 | 22115 ft | 251 kts | 301° |
| 2026-05-05 21:29 | 41.77693 | 20.30481 | 22116 ft | 250 kts | 301° |
| 2026-05-05 21:29 | 41.78623 | 20.28512 | 22120 ft | 250 kts | 301° |
| 2026-05-05 21:29 | 41.79552 | 20.26547 | 22118 ft | 249 kts | 301° |
| 2026-05-05 21:29 | 41.80470 | 20.24605 | 22114 ft | 249 kts | 301° |
| 2026-05-05 21:30 | 41.81398 | 20.22637 | 22119 ft | 250 kts | 301° |
| 2026-05-05 21:30 | 41.82325 | 20.20671 | 22117 ft | 250 kts | 301° |
| 2026-05-05 21:30 | 41.83255 | 20.18699 | 22117 ft | 250 kts | 301° |
| 2026-05-05 21:30 | 41.84183 | 20.16730 | 22116 ft | 249 kts | 301° |
| 2026-05-05 21:31 | 41.85109 | 20.14762 | 22115 ft | 249 kts | 301° |
| 2026-05-05 21:31 | 41.86034 | 20.12795 | 22117 ft | 249 kts | 301° |
| 2026-05-05 21:31 | 41.86958 | 20.10828 | 22118 ft | 249 kts | 301° |
| 2026-05-05 21:31 | 41.87884 | 20.08859 | 22117 ft | 250 kts | 301° |
| 2026-05-05 21:32 | 41.88810 | 20.06886 | 22115 ft | 249 kts | 301° |
| 2026-05-05 21:32 | 41.89734 | 20.04917 | 22115 ft | 249 kts | 301° |
| 2026-05-05 21:32 | 41.90655 | 20.02952 | 22116 ft | 248 kts | 301° |
| 2026-05-05 21:32 | 41.91575 | 20.00988 | 22117 ft | 248 kts | 301° |
| 2026-05-05 21:33 | 41.92496 | 19.99022 | 22121 ft | 248 kts | 301° |
| 2026-05-05 21:33 | 41.93406 | 19.97078 | 22119 ft | 248 kts | 301° |
| 2026-05-05 21:33 | 41.94322 | 19.95118 | 22119 ft | 248 kts | 301° |
| 2026-05-05 21:33 | 41.95237 | 19.93160 | 22119 ft | 247 kts | 301° |
| 2026-05-05 21:34 | 41.96153 | 19.91199 | 22120 ft | 248 kts | 301° |
| 2026-05-05 21:34 | 41.97068 | 19.89238 | 22116 ft | 248 kts | 301° |
| 2026-05-05 21:34 | 41.97986 | 19.87270 | 22117 ft | 248 kts | 301° |
| 2026-05-05 21:34 | 41.98902 | 19.85307 | 22122 ft | 248 kts | 301° |
| 2026-05-05 21:35 | 41.99818 | 19.83339 | 22120 ft | 248 kts | 301° |
| 2026-05-05 21:35 | 42.00734 | 19.81371 | 22121 ft | 248 kts | 301° |
| 2026-05-05 21:35 | 42.01649 | 19.79405 | 22119 ft | 248 kts | 301° |
| 2026-05-05 21:35 | 42.02552 | 19.77462 | 22117 ft | 248 kts | 301° |
| 2026-05-05 21:36 | 42.03477 | 19.75469 | 22115 ft | 248 kts | 300° |
| 2026-05-05 21:36 | 42.04375 | 19.73536 | 22115 ft | 248 kts | 301° |
| 2026-05-05 21:36 | 42.05291 | 19.71562 | 22114 ft | 248 kts | 301° |
| 2026-05-05 21:36 | 42.06203 | 19.69600 | 22114 ft | 247 kts | 301° |
| 2026-05-05 21:37 | 42.07111 | 19.67635 | 22120 ft | 247 kts | 301° |
| 2026-05-05 21:37 | 42.08023 | 19.65667 | 22116 ft | 247 kts | 301° |
| 2026-05-05 21:37 | 42.08933 | 19.63701 | 22116 ft | 247 kts | 301° |
| 2026-05-05 21:37 | 42.09841 | 19.61736 | 22116 ft | 247 kts | 301° |
| 2026-05-05 21:38 | 42.10750 | 19.59770 | 22118 ft | 247 kts | 301° |
| 2026-05-05 21:38 | 42.11657 | 19.57807 | 22115 ft | 247 kts | 301° |
| 2026-05-05 21:38 | 42.12566 | 19.55836 | 22118 ft | 247 kts | 301° |
| 2026-05-05 21:38 | 42.13473 | 19.53872 | 22117 ft | 247 kts | 301° |
| 2026-05-05 21:39 | 42.14379 | 19.51905 | 22116 ft | 247 kts | 301° |
| 2026-05-05 21:39 | 42.15283 | 19.49943 | 22113 ft | 246 kts | 301° |
| 2026-05-05 21:39 | 42.16188 | 19.47978 | 22114 ft | 247 kts | 301° |
| 2026-05-05 21:39 | 42.17093 | 19.46011 | 22112 ft | 247 kts | 301° |
| 2026-05-05 21:40 | 42.17985 | 19.44071 | 22113 ft | 247 kts | 301° |
| 2026-05-05 21:40 | 42.18886 | 19.42110 | 22112 ft | 247 kts | 301° |
| 2026-05-05 21:40 | 42.19789 | 19.40142 | 22114 ft | 246 kts | 301° |
| 2026-05-05 21:40 | 42.20691 | 19.38177 | 22108 ft | 246 kts | 301° |
| 2026-05-05 21:41 | 42.21592 | 19.36212 | 22111 ft | 246 kts | 300° |
| 2026-05-05 21:41 | 42.22495 | 19.34242 | 22111 ft | 246 kts | 301° |
| 2026-05-05 21:41 | 42.23422 | 19.32299 | 22111 ft | 246 kts | 302° |
| 2026-05-05 21:41 | 42.24364 | 19.30366 | 22112 ft | 246 kts | 302° |
| 2026-05-05 21:42 | 42.25301 | 19.28426 | 22109 ft | 246 kts | 302° |
| 2026-05-05 21:42 | 42.26239 | 19.26488 | 22108 ft | 247 kts | 302° |
| 2026-05-05 21:42 | 42.27178 | 19.24551 | 22109 ft | 247 kts | 302° |
| 2026-05-05 21:42 | 42.28118 | 19.22612 | 22108 ft | 247 kts | 302° |
| 2026-05-05 21:43 | 42.29057 | 19.20674 | 22111 ft | 247 kts | 302° |
| 2026-05-05 21:43 | 42.29995 | 19.18736 | 22110 ft | 247 kts | 302° |
| 2026-05-05 21:43 | 42.30937 | 19.16786 | 22004 ft | 250 kts | 302° |
| 2026-05-05 21:43 | 42.31898 | 19.14796 | 21826 ft | 255 kts | 302° |
| 2026-05-05 21:44 | 42.32876 | 19.12772 | 21651 ft | 258 kts | 302° |
| 2026-05-05 21:44 | 42.33862 | 19.10731 | 21473 ft | 260 kts | 302° |
| 2026-05-05 21:44 | 42.34852 | 19.08678 | 21305 ft | 261 kts | 302° |
| 2026-05-05 21:44 | 42.35845 | 19.06617 | 21133 ft | 262 kts | 302° |
| 2026-05-05 21:45 | 42.36841 | 19.04548 | 20958 ft | 263 kts | 302° |
| 2026-05-05 21:45 | 42.37837 | 19.02480 | 20785 ft | 263 kts | 302° |
| 2026-05-05 21:45 | 42.38823 | 19.00429 | 20614 ft | 263 kts | 302° |
| 2026-05-05 21:45 | 42.39833 | 18.98329 | 20440 ft | 263 kts | 302° |
| 2026-05-05 21:46 | 42.40817 | 18.96280 | 20270 ft | 263 kts | 302° |
| 2026-05-05 21:46 | 42.41812 | 18.94208 | 20097 ft | 262 kts | 301° |
| 2026-05-05 21:46 | 42.42804 | 18.92135 | 19930 ft | 262 kts | 301° |
| 2026-05-05 21:46 | 42.43800 | 18.90060 | 19759 ft | 262 kts | 301° |
| 2026-05-05 21:47 | 42.44795 | 18.87983 | 19595 ft | 263 kts | 301° |
| 2026-05-05 21:47 | 42.45788 | 18.85908 | 19432 ft | 263 kts | 301° |
| 2026-05-05 21:47 | 42.46781 | 18.83831 | 19264 ft | 262 kts | 301° |
| 2026-05-05 21:47 | 42.47772 | 18.81761 | 19102 ft | 262 kts | 301° |
| 2026-05-05 21:48 | 42.48762 | 18.79685 | 18937 ft | 262 kts | 301° |
| 2026-05-05 21:48 | 42.49750 | 18.77618 | 18773 ft | 262 kts | 301° |
| 2026-05-05 21:48 | 42.50739 | 18.75544 | 18613 ft | 262 kts | 301° |
| 2026-05-05 21:48 | 42.51729 | 18.73462 | 18448 ft | 262 kts | 301° |
| 2026-05-05 21:49 | 42.52717 | 18.71390 | 18273 ft | 262 kts | 301° |
| 2026-05-05 21:49 | 42.53709 | 18.69310 | 18030 ft | 263 kts | 301° |
| 2026-05-05 21:49 | 42.54702 | 18.67220 | 17795 ft | 263 kts | 301° |
| 2026-05-05 21:49 | 42.55682 | 18.65159 | 17568 ft | 264 kts | 301° |
| 2026-05-05 21:50 | 42.56672 | 18.63073 | 17330 ft | 263 kts | 301° |
| 2026-05-05 21:50 | 42.57662 | 18.60988 | 17099 ft | 262 kts | 301° |
| 2026-05-05 21:50 | 42.58643 | 18.58918 | 16870 ft | 261 kts | 301° |
| 2026-05-05 21:50 | 42.59626 | 18.56846 | 16638 ft | 261 kts | 301° |
| 2026-05-05 21:51 | 42.60603 | 18.54786 | 16397 ft | 259 kts | 301° |
| 2026-05-05 21:51 | 42.61578 | 18.52724 | 16168 ft | 259 kts | 301° |
| 2026-05-05 21:51 | 42.62551 | 18.50667 | 15947 ft | 258 kts | 301° |
| 2026-05-05 21:51 | 42.63519 | 18.48618 | 15723 ft | 258 kts | 301° |
| 2026-05-05 21:52 | 42.65452 | 18.44524 | 15280 ft | 256 kts | 301° |
| 2026-05-05 21:52 | 42.66411 | 18.42494 | 15068 ft | 255 kts | 301° |
| 2026-05-05 21:52 | 42.67370 | 18.40460 | 14845 ft | 255 kts | 301° |
| 2026-05-05 21:53 | 42.68325 | 18.38433 | 14630 ft | 254 kts | 301° |
| 2026-05-05 21:53 | 42.69275 | 18.36412 | 14418 ft | 254 kts | 301° |
| 2026-05-05 21:53 | 42.70225 | 18.34394 | 14206 ft | 253 kts | 301° |
| 2026-05-05 21:53 | 42.71174 | 18.32376 | 13996 ft | 252 kts | 301° |
| 2026-05-05 21:54 | 42.72116 | 18.30374 | 13773 ft | 251 kts | 301° |
| 2026-05-05 21:54 | 42.73055 | 18.28368 | 13535 ft | 251 kts | 301° |
| 2026-05-05 21:54 | 42.73995 | 18.26366 | 13300 ft | 251 kts | 301° |
| 2026-05-05 21:54 | 42.74932 | 18.24369 | 13067 ft | 251 kts | 301° |
| 2026-05-05 21:55 | 42.75868 | 18.22369 | 12831 ft | 250 kts | 301° |
| 2026-05-05 21:55 | 42.76803 | 18.20374 | 12600 ft | 249 kts | 301° |
| 2026-05-05 21:55 | 42.77734 | 18.18383 | 12372 ft | 249 kts | 301° |
| 2026-05-05 21:55 | 42.78664 | 18.16395 | 12141 ft | 248 kts | 301° |
| 2026-05-05 21:56 | 42.79635 | 18.14457 | 11916 ft | 249 kts | 308° |
| 2026-05-05 21:56 | 42.80920 | 18.12859 | 11688 ft | 252 kts | 322° |
| 2026-05-05 21:56 | 42.82461 | 18.11720 | 11467 ft | 253 kts | 334° |
| 2026-05-05 21:56 | 42.84064 | 18.10786 | 11254 ft | 253 kts | 333° |
| 2026-05-05 21:57 | 42.85680 | 18.09809 | 11035 ft | 254 kts | 333° |
| 2026-05-05 21:57 | 42.87304 | 18.08838 | 10816 ft | 254 kts | 333° |
| 2026-05-05 21:57 | 42.88917 | 18.07884 | 10599 ft | 252 kts | 333° |
| 2026-05-05 21:57 | 42.90521 | 18.06927 | 10383 ft | 251 kts | 333° |
| 2026-05-05 21:58 | 42.92123 | 18.05968 | 10167 ft | 251 kts | 333° |
| 2026-05-05 21:58 | 42.93723 | 18.05014 | 9949 ft | 251 kts | 333° |
| 2026-05-05 21:58 | 42.95324 | 18.04062 | 9716 ft | 250 kts | 334° |
| 2026-05-05 21:58 | 42.96919 | 18.03112 | 9482 ft | 250 kts | 333° |
| 2026-05-05 21:59 | 42.98513 | 18.02150 | 9246 ft | 250 kts | 331° |
| 2026-05-05 21:59 | 42.99919 | 18.00811 | 9086 ft | 244 kts | 314° |
| 2026-05-05 21:59 | 43.00995 | 17.99082 | 9083 ft | 235 kts | 301° |
| 2026-05-05 21:59 | 43.01699 | 17.97095 | 9078 ft | 231 kts | 287° |
| 2026-05-05 22:00 | 43.02023 | 17.94973 | 9074 ft | 228 kts | 274° |
| 2026-05-05 22:00 | 43.02016 | 17.92813 | 9074 ft | 226 kts | 268° |
| 2026-05-05 22:00 | 43.01988 | 17.90666 | 9071 ft | 226 kts | 268° |
| 2026-05-05 22:00 | 43.02118 | 17.88540 | 9071 ft | 227 kts | 286° |
| 2026-05-05 22:01 | 43.03005 | 17.86768 | 9070 ft | 232 kts | 319° |
| 2026-05-05 22:01 | 43.03953 | 17.86086 | 9072 ft | 236 kts | 340° |
| 2026-05-05 22:01 | 43.05596 | 17.86056 | 9070 ft | 242 kts | 12° |
| 2026-05-05 22:01 | 43.07403 | 17.87828 | 8999 ft | 250 kts | 54° |
| 2026-05-05 22:02 | 43.07999 | 17.90034 | 8596 ft | 252 kts | 85° |
| 2026-05-05 22:02 | 43.07714 | 17.92363 | 8178 ft | 249 kts | 117° |
| 2026-05-05 22:02 | 43.06635 | 17.94143 | 7765 ft | 242 kts | 148° |
| 2026-05-05 22:02 | 43.05615 | 17.94772 | 7479 ft | 236 kts | 169° |
| 2026-05-05 22:03 | 43.04023 | 17.94678 | 7073 ft | 229 kts | 200° |
| 2026-05-05 22:03 | 43.02742 | 17.93505 | 6678 ft | 225 kts | 225° |
| 2026-05-05 22:03 | 43.01893 | 17.91727 | 6295 ft | 225 kts | 248° |
| 2026-05-05 22:03 | 43.01696 | 17.89637 | 6042 ft | 225 kts | 273° |
| 2026-05-05 22:04 | 43.02260 | 17.87637 | 5727 ft | 231 kts | 302° |
| 2026-05-05 22:04 | 43.03530 | 17.86271 | 5400 ft | 239 kts | 335° |
| 2026-05-05 22:04 | 43.05178 | 17.85931 | 5061 ft | 242 kts | 359° |
| 2026-05-05 22:04 | 43.06866 | 17.86023 | 4700 ft | 242 kts | 1° |
| 2026-05-05 22:05 | 43.08464 | 17.86054 | 4350 ft | 212 kts | 358° |
| 2026-05-05 22:05 | 43.09839 | 17.85998 | 4027 ft | 184 kts | 358° |
| 2026-05-05 22:05 | 43.11038 | 17.85951 | 3762 ft | 162 kts | 358° |
| 2026-05-05 22:05 | 43.12106 | 17.85917 | 3521 ft | 147 kts | 359° |
| 2026-05-05 22:06 | 43.13104 | 17.85888 | 3299 ft | 140 kts | 360° |
| 2026-05-05 22:06 | 43.14027 | 17.85861 | 3117 ft | 127 kts | 360° |
| 2026-05-05 22:06 | 43.14893 | 17.85836 | 2923 ft | 123 kts | 0° |
| 2026-05-05 22:06 | 43.15744 | 17.85812 | 2727 ft | 121 kts | 0° |
| 2026-05-05 22:07 | 43.16575 | 17.85787 | 2546 ft | 119 kts | 0° |
| 2026-05-05 22:07 | 43.17388 | 17.85763 | 2362 ft | 117 kts | 1° |
| 2026-05-05 22:07 | 43.18204 | 17.85740 | 2167 ft | 117 kts | 1° |
| 2026-05-05 22:07 | 43.19007 | 17.85715 | 1987 ft | 114 kts | 0° |
| 2026-05-05 22:08 | 43.19798 | 17.85693 | 1802 ft | 113 kts | 359° |
| 2026-05-05 22:08 | 43.20579 | 17.85671 | 1630 ft | 112 kts | 359° |
| 2026-05-05 22:08 | 43.21357 | 17.85645 | 1459 ft | 111 kts | 359° |
| 2026-05-05 22:08 | 43.22131 | 17.85623 | 1291 ft | 111 kts | 359° |
| 2026-05-05 22:09 | 43.22901 | 17.85604 | 1127 ft | 110 kts | 0° |
| 2026-05-05 22:09 | 43.23664 | 17.85624 | 992 ft | 108 kts | 2° |
| 2026-05-05 22:09 | 43.24413 | 17.85664 | 864 ft | 107 kts | 2° |
| 2026-05-05 22:09 | 43.25160 | 17.85658 | 716 ft | 109 kts | 359° |
| 2026-05-05 22:10 | 43.25924 | 17.85582 | 545 ft | 111 kts | 353° |
| 2026-05-05 22:10 | 43.26684 | 17.85392 | 385 ft | 112 kts | 346° |
| 2026-05-05 22:10 | 43.27428 | 17.85064 | 190 ft | 108 kts | 338° |
| 2026-05-05 22:10 | 43.28012 | 17.84735 | 167 ft | 76 kts | 337° |
| 2026-05-05 22:11 | 43.28421 | 17.84503 | 169 ft | 55 kts | 339° |
| 2026-05-05 22:11 | 43.28755 | 17.84323 | 169 ft | 35 kts | 338° |
| 2026-05-05 22:11 | 43.28860 | 17.84213 | 170 ft | 15 kts | 257° |
| 2026-05-05 22:11 | 43.28824 | 17.84078 | 173 ft | 15 kts | 250° |
| 2026-05-05 22:12 | 43.28805 | 17.83943 | 173 ft | 11 kts | 304° |
| 2026-05-05 22:12 | 43.28809 | 17.83935 | 173 ft | 0 kts | 304° |